Time;durP1;ratioP1;P1;durP2;ratioP2;P2;SDS_P1;SDS_P2;PMS_P1;PMS_P2;Temp;Humidity;BMP_temperature;BMP_pressure;BME280_temperature;BME280_humidity;BME280_pressure;Samples;Min_cycle;Max_cycle;Signal;HPM_P1;HPM_P2
2021/12/29 00:02:20;;;;;;;;;;;14.30;63.80;;;;;;6155068;23;19983;-86
2021/12/29 00:04:45;;;;;;;;;;;14.30;63.70;;;;;;6181469;23;20348;-87
2021/12/29 00:07:11;;;;;;;;;;;14.30;63.70;;;;;;6179714;23;20401;-86
2021/12/29 00:09:39;;;;;;;;;;;14.30;63.60;;;;;;6183264;23;19970;-86
2021/12/29 00:12:07;;;;;;;;;;;14.30;63.60;;;;;;6183033;23;19908;-87
2021/12/29 00:14:32;;;;;;;;;;;14.30;63.60;;;;;;6184776;23;19912;-87
2021/12/29 00:16:58;;;;;;;;;;;14.20;63.60;;;;;;6182721;23;19955;-88
2021/12/29 00:19:25;;;;;;;;;;;14.20;63.60;;;;;;6155050;23;19939;-86
2021/12/29 00:21:51;;;;;;;;;;;14.20;63.70;;;;;;6180898;23;19908;-86
2021/12/29 00:24:17;;;;;;;;;;;14.10;63.70;;;;;;6181846;23;19920;-87
2021/12/29 00:26:42;;;;;;;;;;;14.10;63.90;;;;;;6181920;23;20389;-86
2021/12/29 00:29:08;;;;;;;;;;;14.10;64.00;;;;;;6186559;23;19986;-87
2021/12/29 00:31:33;;;;;;;;;;;14.00;63.90;;;;;;6186645;23;19904;-86
2021/12/29 00:33:59;;;;;;;;;;;14.00;64.00;;;;;;6184252;23;19904;-87
2021/12/29 00:36:25;;;;;;;;;;;14.00;64.10;;;;;;6181050;23;19912;-88
2021/12/29 00:38:51;;;;;;;;;;;13.90;64.20;;;;;;6183109;23;19916;-87
2021/12/29 00:41:17;;;;;;;;;;;14.00;64.10;;;;;;6180933;23;19908;-87
2021/12/29 00:43:44;;;;;;;;;;;13.90;64.10;;;;;;6180990;23;20348;-86
2021/12/29 00:46:12;;;;;;;;;;;13.80;64.00;;;;;;6186555;23;20336;-87
2021/12/29 00:48:41;;;;;;;;;;;13.90;64.10;;;;;;6186972;23;20372;-87
2021/12/29 00:51:07;;;;;;;;;;;13.80;64.20;;;;;;6186915;23;19912;-86
2021/12/29 00:53:33;;;;;;;;;;;13.80;64.30;;;;;;6182272;23;20422;-89
2021/12/29 00:55:59;;;;;;;;;;;13.80;64.50;;;;;;6182828;23;19939;-88
2021/12/29 00:58:24;;;;;;;;;;;13.80;64.50;;;;;;6180245;23;19912;-87
2021/12/29 01:00:49;;;;;;;;;;;13.80;64.70;;;;;;6154873;23;19949;-88
2021/12/29 01:03:15;;;;;;;;;;;13.80;64.60;;;;;;6182524;23;19935;-88
2021/12/29 01:05:41;;;;;;;;;;;13.80;64.70;;;;;;6185759;23;19919;-87
2021/12/29 01:08:06;;;;;;;;;;;13.80;64.70;;;;;;6183584;23;19904;-87
2021/12/29 01:10:33;;;;;;;;;;;13.80;64.70;;;;;;6183671;23;19946;-87
2021/12/29 01:13:01;;;;;;;;;;;13.90;64.60;;;;;;6180580;23;19943;-88
2021/12/29 01:15:32;;;;;;;;;;;13.90;64.70;;;;;;6179882;23;20157;-87
2021/12/29 01:17:59;;;;;;;;;;;13.90;64.80;;;;;;6181024;23;19912;-88
2021/12/29 01:20:25;;;;;;;;;;;13.90;64.80;;;;;;6154265;23;20287;-87
2021/12/29 01:22:50;;;;;;;;;;;13.90;64.80;;;;;;6182374;23;19955;-86
2021/12/29 01:25:16;;;;;;;;;;;13.90;64.70;;;;;;6185411;23;19924;-87
2021/12/29 01:27:41;;;;;;;;;;;14.00;64.90;;;;;;6158462;23;19904;-87
2021/12/29 01:30:10;;;;;;;;;;;14.00;64.90;;;;;;6157223;23;19917;-87
2021/12/29 01:32:40;;;;;;;;;;;14.00;64.90;;;;;;6180434;23;19904;-87
2021/12/29 01:35:06;;;;;;;;;;;14.00;64.90;;;;;;6185448;23;19962;-87
2021/12/29 01:37:32;;;;;;;;;;;14.00;64.90;;;;;;6158884;23;19959;-88
2021/12/29 01:39:57;;;;;;;;;;;14.00;64.90;;;;;;6158254;23;19968;-86
2021/12/29 01:42:23;;;;;;;;;;;14.10;65.10;;;;;;6184970;23;19976;-87
2021/12/29 01:44:48;;;;;;;;;;;14.00;65.20;;;;;;6183768;23;19912;-87
2021/12/29 01:47:23;;;;;;;;;;;14.10;65.10;;;;;;6187154;23;20233;-87
2021/12/29 01:49:48;;;;;;;;;;;14.10;65.30;;;;;;6181998;23;19916;-87
2021/12/29 01:52:20;;;;;;;;;;;14.20;65.30;;;;;;6182730;23;19912;-88
2021/12/29 01:54:46;;;;;;;;;;;14.20;65.30;;;;;;6183224;23;19916;-87
2021/12/29 01:57:11;;;;;;;;;;;14.20;65.40;;;;;;6186436;23;19916;-86
2021/12/29 01:59:37;;;;;;;;;;;14.20;65.50;;;;;;6187238;23;19912;-86
2021/12/29 02:02:03;;;;;;;;;;;14.30;65.50;;;;;;6186995;23;20292;-87
2021/12/29 02:04:28;;;;;;;;;;;14.30;65.50;;;;;;6186983;23;19912;-87
2021/12/29 02:06:54;;;;;;;;;;;14.30;65.50;;;;;;6187416;23;20396;-87
2021/12/29 02:09:20;;;;;;;;;;;14.30;65.50;;;;;;6187580;23;20355;-87
2021/12/29 02:11:45;;;;;;;;;;;14.30;65.50;;;;;;6187101;23;19912;-87
2021/12/29 02:14:11;;;;;;;;;;;14.30;65.40;;;;;;6185127;23;20348;-87
2021/12/29 02:16:37;;;;;;;;;;;14.40;65.50;;;;;;6183844;23;19911;-87
2021/12/29 02:19:04;;;;;;;;;;;14.40;65.50;;;;;;6187649;23;20525;-88
2021/12/29 02:21:31;;;;;;;;;;;14.40;65.50;;;;;;6185065;23;20354;-87
2021/12/29 02:26:27;;;;;;;;;;;14.50;65.50;;;;;;6183459;23;19908;-87
2021/12/29 02:28:55;;;;;;;;;;;14.50;65.60;;;;;;6181476;23;19983;-86
2021/12/29 02:31:21;;;;;;;;;;;14.50;65.50;;;;;;6182409;23;19912;-87
2021/12/29 02:33:46;;;;;;;;;;;14.50;65.40;;;;;;6182850;23;20313;-87
2021/12/29 02:36:12;;;;;;;;;;;14.50;65.40;;;;;;6184735;23;20013;-87
2021/12/29 02:38:44;;;;;;;;;;;14.50;65.30;;;;;;6160398;23;19912;-86
2021/12/29 02:41:10;;;;;;;;;;;14.50;65.40;;;;;;6160073;23;19916;-87
2021/12/29 02:43:40;;;;;;;;;;;14.50;65.50;;;;;;6184708;23;19930;-88
2021/12/29 02:46:11;;;;;;;;;;;14.60;65.50;;;;;;6183301;23;19916;-87
2021/12/29 02:48:40;;;;;;;;;;;14.60;65.30;;;;;;6180775;23;19958;-87
2021/12/29 02:51:07;;;;;;;;;;;14.70;65.20;;;;;;6183068;23;20293;-86
2021/12/29 02:53:33;;;;;;;;;;;14.60;65.20;;;;;;6182205;23;19985;-86
2021/12/29 02:55:59;;;;;;;;;;;14.60;65.20;;;;;;6181941;23;19920;-87
2021/12/29 02:58:24;;;;;;;;;;;14.60;65.10;;;;;;6155935;23;19908;-87
2021/12/29 03:00:51;;;;;;;;;;;14.60;65.10;;;;;;6181051;23;20302;-87
2021/12/29 03:03:21;;;;;;;;;;;14.60;65.00;;;;;;6182672;23;19915;-88
2021/12/29 03:05:47;;;;;;;;;;;14.50;65.10;;;;;;6180348;23;19943;-88
2021/12/29 03:08:13;;;;;;;;;;;14.50;65.00;;;;;;6184693;23;19940;-87
2021/12/29 03:10:39;;;;;;;;;;;14.50;65.10;;;;;;6159376;23;19912;-86
2021/12/29 03:13:05;;;;;;;;;;;14.50;65.10;;;;;;6182346;23;20223;-88
2021/12/29 03:15:30;;;;;;;;;;;14.50;65.10;;;;;;6180196;23;20228;-88
2021/12/29 03:17:55;;;;;;;;;;;14.50;65.10;;;;;;6180450;23;19908;-88
2021/12/29 03:20:21;;;;;;;;;;;14.50;65.10;;;;;;6184452;23;19994;-87
2021/12/29 03:22:46;;;;;;;;;;;14.50;65.10;;;;;;6185629;23;19904;-87
2021/12/29 03:25:12;;;;;;;;;;;14.50;65.20;;;;;;6158941;23;19912;-87
2021/12/29 03:27:37;;;;;;;;;;;14.50;65.30;;;;;;6184677;23;19908;-87
2021/12/29 03:30:03;;;;;;;;;;;14.50;65.10;;;;;;6182114;23;20003;-87
2021/12/29 03:32:40;;;;;;;;;;;14.50;65.20;;;;;;6180032;23;19963;-88
2021/12/29 03:35:06;;;;;;;;;;;14.50;65.20;;;;;;6182021;23;19912;-88
2021/12/29 03:37:32;;;;;;;;;;;14.50;65.10;;;;;;6185821;23;19915;-87
2021/12/29 03:39:57;;;;;;;;;;;14.50;65.20;;;;;;6184937;23;20358;-87
2021/12/29 03:42:22;;;;;;;;;;;14.40;65.00;;;;;;6185115;23;20359;-88
2021/12/29 03:44:48;;;;;;;;;;;14.50;65.10;;;;;;6179756;23;20242;-87
2021/12/29 03:47:13;;;;;;;;;;;14.50;65.10;;;;;;6182091;23;19917;-87
2021/12/29 03:49:39;;;;;;;;;;;14.50;65.10;;;;;;6181895;23;19919;-87
2021/12/29 03:52:05;;;;;;;;;;;14.50;65.00;;;;;;6184159;23;19948;-86
2021/12/29 03:54:31;;;;;;;;;;;14.50;64.90;;;;;;6182947;23;19923;-87
2021/12/29 03:57:00;;;;;;;;;;;14.50;64.90;;;;;;6185497;23;20328;-86
2021/12/29 03:59:26;;;;;;;;;;;14.50;65.00;;;;;;6185989;23;19913;-87
2021/12/29 04:01:52;;;;;;;;;;;14.50;65.10;;;;;;6184978;23;20233;-87
2021/12/29 04:04:18;;;;;;;;;;;14.50;65.10;;;;;;6183663;23;19916;-87
2021/12/29 04:06:44;;;;;;;;;;;14.50;65.10;;;;;;6185461;23;19991;-86
2021/12/29 04:09:09;;;;;;;;;;;14.60;65.00;;;;;;6182098;23;20937;-88
2021/12/29 04:11:35;;;;;;;;;;;14.50;65.00;;;;;;6182380;23;19967;-87
2021/12/29 04:14:00;;;;;;;;;;;14.60;65.10;;;;;;6185040;23;19911;-86
2021/12/29 04:16:26;;;;;;;;;;;14.60;65.10;;;;;;6183836;23;19905;-87
2021/12/29 04:19:14;;;;;;;;;;;14.60;65.00;;;;;;6184679;23;19908;-88
2021/12/29 04:21:40;;;;;;;;;;;14.50;65.00;;;;;;6181455;23;20252;-87
2021/12/29 04:24:06;;;;;;;;;;;14.60;65.00;;;;;;6179676;23;19915;-86
2021/12/29 04:26:35;;;;;;;;;;;14.60;65.00;;;;;;6181716;23;20387;-88
2021/12/29 04:29:01;;;;;;;;;;;14.60;64.90;;;;;;6155075;23;19998;-86
2021/12/29 04:31:26;;;;;;;;;;;14.60;65.00;;;;;;6181974;23;19904;-87
2021/12/29 04:33:51;;;;;;;;;;;14.60;65.10;;;;;;6179969;23;19915;-87
2021/12/29 04:36:23;;;;;;;;;;;14.70;65.00;;;;;;6181510;23;20280;-87
2021/12/29 04:38:49;;;;;;;;;;;14.70;64.90;;;;;;6181567;23;19916;-87
2021/12/29 04:41:15;;;;;;;;;;;14.70;64.90;;;;;;6182174;23;20301;-87
2021/12/29 04:43:40;;;;;;;;;;;14.70;64.90;;;;;;6180472;23;19955;-87
2021/12/29 04:46:06;;;;;;;;;;;14.70;64.90;;;;;;6182801;23;19912;-86
2021/12/29 04:48:37;;;;;;;;;;;14.70;64.90;;;;;;6186816;23;19905;-87
2021/12/29 04:51:06;;;;;;;;;;;14.70;64.90;;;;;;6185116;23;19931;-87
2021/12/29 04:53:33;;;;;;;;;;;14.70;64.90;;;;;;6182630;23;20381;-87
2021/12/29 04:55:59;;;;;;;;;;;14.70;64.80;;;;;;6183113;23;19917;-87
2021/12/29 04:58:24;;;;;;;;;;;14.70;64.90;;;;;;6181627;23;19967;-87
2021/12/29 05:00:51;;;;;;;;;;;14.70;64.90;;;;;;6186444;23;19923;-88
2021/12/29 05:03:17;;;;;;;;;;;14.70;65.00;;;;;;6187393;23;19904;-86
2021/12/29 05:08:24;;;;;;;;;;;14.70;65.00;;;;;;6159905;23;19916;-87
2021/12/29 05:08:40;;;;;;;;;;;14.70;65.00;;;;;;6184304;23;19908;-87
2021/12/29 05:11:07;;;;;;;;;;;14.70;65.00;;;;;;6184366;23;20273;-87
2021/12/29 05:13:34;;;;;;;;;;;14.70;65.00;;;;;;6183095;23;19919;-88
2021/12/29 05:16:00;;;;;;;;;;;14.70;65.10;;;;;;6184475;23;19966;-88
2021/12/29 05:18:26;;;;;;;;;;;14.70;65.10;;;;;;6183059;23;19908;-86
2021/12/29 05:20:51;;;;;;;;;;;14.80;65.20;;;;;;6184467;23;19952;-87
2021/12/29 05:23:18;;;;;;;;;;;14.70;65.20;;;;;;6188140;23;19967;-87
2021/12/29 05:25:43;;;;;;;;;;;14.70;65.20;;;;;;6188584;23;20491;-87
2021/12/29 05:28:09;;;;;;;;;;;14.80;65.20;;;;;;6186433;23;19904;-87
2021/12/29 05:30:35;;;;;;;;;;;14.80;65.30;;;;;;6158073;23;20329;-87
2021/12/29 05:33:00;;;;;;;;;;;14.80;65.10;;;;;;6184999;23;19932;-87
2021/12/29 05:35:27;;;;;;;;;;;14.80;65.20;;;;;;6183038;23;20384;-87
2021/12/29 05:37:52;;;;;;;;;;;14.80;65.30;;;;;;6186654;23;19958;-87
2021/12/29 05:40:18;;;;;;;;;;;14.80;65.30;;;;;;6188471;23;19971;-87
2021/12/29 05:42:43;;;;;;;;;;;14.80;65.30;;;;;;6161788;23;19911;-87
2021/12/29 05:45:11;;;;;;;;;;;14.80;65.40;;;;;;6188309;23;19922;-87
2021/12/29 05:47:36;;;;;;;;;;;14.80;65.40;;;;;;6185900;23;19995;-87
2021/12/29 05:50:03;;;;;;;;;;;14.80;65.50;;;;;;6159857;23;19940;-87
2021/12/29 05:52:29;;;;;;;;;;;14.80;65.40;;;;;;6160086;23;19908;-87
2021/12/29 05:54:55;;;;;;;;;;;14.80;65.30;;;;;;6188398;23;20218;-88
2021/12/29 05:57:20;;;;;;;;;;;14.80;65.40;;;;;;6163143;23;19919;-87
2021/12/29 05:59:46;;;;;;;;;;;14.80;65.40;;;;;;6188529;23;19913;-88
2021/12/29 06:02:11;;;;;;;;;;;14.80;65.30;;;;;;6187963;23;19908;-87
2021/12/29 06:04:37;;;;;;;;;;;14.80;65.40;;;;;;6187028;23;19940;-87
2021/12/29 06:07:02;;;;;;;;;;;14.80;65.30;;;;;;6159188;23;20277;-87
2021/12/29 06:09:28;;;;;;;;;;;14.80;65.20;;;;;;6159064;23;19951;-87
2021/12/29 06:11:53;;;;;;;;;;;14.90;65.20;;;;;;6185127;23;19905;-87
2021/12/29 06:14:18;;;;;;;;;;;14.90;65.30;;;;;;6187499;23;19991;-87
2021/12/29 06:16:44;;;;;;;;;;;14.80;65.20;;;;;;6186692;23;19908;-88
2021/12/29 06:19:10;;;;;;;;;;;14.80;65.20;;;;;;6188506;23;19924;-88
2021/12/29 06:21:35;;;;;;;;;;;14.80;65.20;;;;;;6185692;23;19908;-88
2021/12/29 06:24:01;;;;;;;;;;;14.80;65.30;;;;;;6183886;23;19951;-87
2021/12/29 06:26:26;;;;;;;;;;;14.80;65.30;;;;;;6158908;23;19909;-87
2021/12/29 06:28:52;;;;;;;;;;;14.80;65.20;;;;;;6158398;23;19912;-87
2021/12/29 06:31:17;;;;;;;;;;;14.80;65.20;;;;;;6187233;23;19904;-88
2021/12/29 06:33:43;;;;;;;;;;;14.80;65.20;;;;;;6187930;23;19904;-87
2021/12/29 06:36:08;;;;;;;;;;;14.80;65.30;;;;;;6188027;23;19912;-86
2021/12/29 06:38:34;;;;;;;;;;;14.80;65.30;;;;;;6186539;23;20237;-86
2021/12/29 06:41:00;;;;;;;;;;;14.80;65.20;;;;;;6159527;23;19971;-87
2021/12/29 06:43:25;;;;;;;;;;;14.80;65.10;;;;;;6183386;23;19986;-87
2021/12/29 06:45:51;;;;;;;;;;;14.70;65.10;;;;;;6158628;23;20344;-87
2021/12/29 06:48:16;;;;;;;;;;;14.70;65.20;;;;;;6159160;23;20467;-87
2021/12/29 06:50:42;;;;;;;;;;;14.70;65.20;;;;;;6186554;23;19970;-87
2021/12/29 06:53:08;;;;;;;;;;;14.70;65.20;;;;;;6187904;23;19908;-87
2021/12/29 06:55:33;;;;;;;;;;;14.70;65.30;;;;;;6185970;23;20237;-86
2021/12/29 06:57:59;;;;;;;;;;;14.70;65.30;;;;;;6159136;23;19923;-88
2021/12/29 07:00:24;;;;;;;;;;;14.70;65.30;;;;;;6184889;23;19916;-87
2021/12/29 07:02:50;;;;;;;;;;;14.70;65.40;;;;;;6185014;23;19916;-87
2021/12/29 07:05:15;;;;;;;;;;;14.70;65.30;;;;;;6184985;23;19986;-87
2021/12/29 07:07:42;;;;;;;;;;;14.70;65.20;;;;;;6187084;23;19991;-86
2021/12/29 07:10:08;;;;;;;;;;;14.70;65.30;;;;;;6186420;23;19916;-88
2021/12/29 07:12:34;;;;;;;;;;;14.70;65.30;;;;;;6186281;23;19912;-87
2021/12/29 07:14:59;;;;;;;;;;;14.70;65.20;;;;;;6187179;23;20034;-86
2021/12/29 07:17:25;;;;;;;;;;;14.70;65.30;;;;;;6182534;23;20259;-87
2021/12/29 07:19:50;;;;;;;;;;;14.70;65.10;;;;;;6184009;23;19908;-87
2021/12/29 07:22:17;;;;;;;;;;;14.70;65.20;;;;;;6184444;23;20364;-87
2021/12/29 07:24:42;;;;;;;;;;;14.70;65.20;;;;;;6181601;23;19912;-88
2021/12/29 07:27:08;;;;;;;;;;;14.70;65.10;;;;;;6185428;23;19979;-87
2021/12/29 07:29:33;;;;;;;;;;;14.70;65.20;;;;;;6186913;23;19904;-87
2021/12/29 07:31:59;;;;;;;;;;;14.70;65.20;;;;;;6186019;23;19916;-87
2021/12/29 07:34:25;;;;;;;;;;;14.70;65.20;;;;;;6185529;23;20015;-88
2021/12/29 07:36:51;;;;;;;;;;;14.70;65.30;;;;;;6182762;23;19912;-88
2021/12/29 07:39:16;;;;;;;;;;;14.70;65.30;;;;;;6184795;23;19914;-88
2021/12/29 07:41:43;;;;;;;;;;;14.60;65.30;;;;;;6184005;23;19995;-88
2021/12/29 07:44:11;;;;;;;;;;;14.60;65.30;;;;;;6160239;23;19905;-87
2021/12/29 07:46:37;;;;;;;;;;;14.60;65.40;;;;;;6187593;23;19919;-87
2021/12/29 07:49:03;;;;;;;;;;;14.70;65.40;;;;;;6187000;23;20233;-87
2021/12/29 07:51:28;;;;;;;;;;;14.60;65.30;;;;;;6159160;23;19913;-87
2021/12/29 07:53:54;;;;;;;;;;;14.60;65.30;;;;;;6183098;23;20316;-87
2021/12/29 07:56:20;;;;;;;;;;;14.60;65.30;;;;;;6182054;23;19920;-87
2021/12/29 07:58:45;;;;;;;;;;;14.60;65.40;;;;;;6184420;23;19929;-86
2021/12/29 08:01:11;;;;;;;;;;;14.70;65.40;;;;;;6184920;23;19920;-86
2021/12/29 08:03:38;;;;;;;;;;;14.70;65.40;;;;;;6186320;23;20288;-87
2021/12/29 08:06:04;;;;;;;;;;;14.70;65.50;;;;;;6188690;23;20280;-88
2021/12/29 08:08:30;;;;;;;;;;;14.70;65.40;;;;;;6162065;23;19910;-88
2021/12/29 08:10:55;;;;;;;;;;;14.70;65.40;;;;;;6158225;23;19944;-88
2021/12/29 08:13:21;;;;;;;;;;;14.70;65.40;;;;;;6182346;23;20002;-88
2021/12/29 08:15:46;;;;;;;;;;;14.70;65.40;;;;;;6182570;23;19915;-88
2021/12/29 08:18:19;;;;;;;;;;;14.70;65.40;;;;;;6181997;23;19912;-88
2021/12/29 08:20:45;;;;;;;;;;;14.70;65.40;;;;;;6187521;23;20230;-87
2021/12/29 08:23:11;;;;;;;;;;;14.70;65.50;;;;;;6186653;23;19912;-88
2021/12/29 08:25:37;;;;;;;;;;;14.70;65.50;;;;;;6161313;23;19999;-87
2021/12/29 08:28:03;;;;;;;;;;;14.70;65.40;;;;;;6157700;23;20329;-88
2021/12/29 08:30:29;;;;;;;;;;;14.80;65.40;;;;;;6182038;23;19987;-88
2021/12/29 08:32:54;;;;;;;;;;;14.80;65.40;;;;;;6182228;23;19923;-88
2021/12/29 08:35:20;;;;;;;;;;;14.80;65.50;;;;;;6183344;23;19908;-89
2021/12/29 08:37:46;;;;;;;;;;;14.90;65.50;;;;;;6183253;23;20326;-87
2021/12/29 08:40:12;;;;;;;;;;;14.90;65.40;;;;;;6160348;23;20260;-87
2021/12/29 08:42:38;;;;;;;;;;;15.00;65.40;;;;;;6185187;23;20364;-87
2021/12/29 08:45:04;;;;;;;;;;;15.00;65.40;;;;;;6184112;23;19908;-87
2021/12/29 08:47:30;;;;;;;;;;;15.00;65.20;;;;;;6183436;23;19920;-87
2021/12/29 08:49:55;;;;;;;;;;;15.00;65.10;;;;;;6183172;23;20244;-87
2021/12/29 08:52:21;;;;;;;;;;;15.00;65.10;;;;;;6156781;23;19923;-87
2021/12/29 08:54:46;;;;;;;;;;;15.10;65.10;;;;;;6185426;23;19909;-87
2021/12/29 08:57:12;;;;;;;;;;;15.10;65.10;;;;;;6187579;23;19913;-86
2021/12/29 08:59:37;;;;;;;;;;;15.10;65.10;;;;;;6162760;23;19904;-87
2021/12/29 09:02:03;;;;;;;;;;;15.10;65.10;;;;;;6190125;23;19908;-87
2021/12/29 09:04:29;;;;;;;;;;;15.10;65.20;;;;;;6187148;23;19963;-88
2021/12/29 09:06:54;;;;;;;;;;;15.10;65.10;;;;;;6184360;23;19909;-88
2021/12/29 09:09:20;;;;;;;;;;;15.10;65.20;;;;;;6184184;23;20166;-88
2021/12/29 09:11:45;;;;;;;;;;;15.10;65.20;;;;;;6184359;23;19915;-88
2021/12/29 09:14:11;;;;;;;;;;;15.10;65.20;;;;;;6161194;23;19917;-87
2021/12/29 09:16:36;;;;;;;;;;;15.10;65.30;;;;;;6162635;23;19905;-86
2021/12/29 09:19:02;;;;;;;;;;;15.20;65.30;;;;;;6188753;23;20347;-87
2021/12/29 09:21:28;;;;;;;;;;;15.20;65.30;;;;;;6189059;23;19959;-87
2021/12/29 09:23:54;;;;;;;;;;;15.20;65.30;;;;;;6188613;23;19908;-87
2021/12/29 09:26:19;;;;;;;;;;;15.20;65.30;;;;;;6186490;23;19919;-88
2021/12/29 09:28:46;;;;;;;;;;;15.20;65.20;;;;;;6185570;23;20320;-87
2021/12/29 09:31:14;;;;;;;;;;;15.20;65.20;;;;;;6184328;23;19952;-89
2021/12/29 09:33:40;;;;;;;;;;;15.30;65.30;;;;;;6188883;23;19946;-88
2021/12/29 09:36:06;;;;;;;;;;;15.30;65.30;;;;;;6187864;23;19920;-88
2021/12/29 09:38:34;;;;;;;;;;;15.30;65.30;;;;;;6186584;23;20267;-86
2021/12/29 09:41:00;;;;;;;;;;;15.30;65.20;;;;;;6184299;23;20275;-87
2021/12/29 09:43:25;;;;;;;;;;;15.30;65.10;;;;;;6158855;23;19908;-87
2021/12/29 09:45:52;;;;;;;;;;;15.40;65.20;;;;;;6183672;23;19959;-87
2021/12/29 09:48:17;;;;;;;;;;;15.40;65.10;;;;;;6158988;23;19912;-87
2021/12/29 09:50:44;;;;;;;;;;;15.40;65.00;;;;;;6184319;23;20280;-88
2021/12/29 09:53:10;;;;;;;;;;;15.50;65.10;;;;;;6161807;23;19948;-88
2021/12/29 09:55:36;;;;;;;;;;;15.50;65.10;;;;;;6187245;23;20409;-89
2021/12/29 09:58:03;;;;;;;;;;;15.60;65.20;;;;;;6161217;23;19904;-88
2021/12/29 10:00:34;;;;;;;;;;;15.60;65.20;;;;;;6184149;23;20356;-87
2021/12/29 10:03:01;;;;;;;;;;;15.70;65.10;;;;;;6182847;23;20391;-87
2021/12/29 10:05:27;;;;;;;;;;;15.70;65.00;;;;;;6184583;23;19912;-88
2021/12/29 10:08:08;;;;;;;;;;;15.70;64.90;;;;;;6184854;23;19911;-88
2021/12/29 10:10:35;;;;;;;;;;;15.70;64.80;;;;;;6188533;23;20314;-87
2021/12/29 10:13:02;;;;;;;;;;;15.70;64.90;;;;;;6188274;23;20237;-88
2021/12/29 10:15:33;;;;;;;;;;;15.80;64.80;;;;;;6186457;23;19912;-87
2021/12/29 10:18:00;;;;;;;;;;;15.80;64.80;;;;;;6184239;23;19916;-87
2021/12/29 10:20:25;;;;;;;;;;;15.80;64.70;;;;;;6185725;23;19908;-86
2021/12/29 10:22:55;;;;;;;;;;;15.80;64.70;;;;;;6182590;23;19931;-87
2021/12/29 10:25:24;;;;;;;;;;;15.80;64.70;;;;;;6182738;23;19915;-87
2021/12/29 10:27:50;;;;;;;;;;;15.80;64.80;;;;;;6160953;23;19912;-87
2021/12/29 10:30:17;;;;;;;;;;;15.90;64.80;;;;;;6187616;23;19947;-86
2021/12/29 10:32:42;;;;;;;;;;;15.90;64.90;;;;;;6188390;23;19918;-88
2021/12/29 10:35:08;;;;;;;;;;;16.00;64.80;;;;;;6188178;23;20352;-92
2021/12/29 10:37:33;;;;;;;;;;;16.00;64.90;;;;;;6189261;23;19912;-91
2021/12/29 10:39:59;;;;;;;;;;;16.10;64.90;;;;;;6186632;23;20229;-93
2021/12/29 10:42:26;;;;;;;;;;;16.10;64.90;;;;;;6185425;23;19928;-93
2021/12/29 10:45:00;;;;;;;;;;;16.20;64.80;;;;;;6186024;23;19970;-94
2021/12/29 10:47:27;;;;;;;;;;;16.20;64.90;;;;;;6165009;23;19934;-93
2021/12/29 10:49:54;;;;;;;;;;;16.20;65.10;;;;;;6190311;23;19911;-91
2021/12/29 10:52:40;;;;;;;;;;;16.30;65.20;;;;;;6190592;23;19919;-91
2021/12/29 10:55:08;;;;;;;;;;;16.40;65.30;;;;;;6185186;23;19912;-93
2021/12/29 10:57:34;;;;;;;;;;;16.50;65.30;;;;;;6186953;23;19916;-91
2021/12/29 10:59:59;;;;;;;;;;;16.50;65.20;;;;;;6184685;23;19935;-93
2021/12/29 11:02:26;;;;;;;;;;;16.60;65.00;;;;;;6185436;23;19935;-93
2021/12/29 11:04:56;;;;;;;;;;;16.60;64.90;;;;;;6188357;23;20364;-93
2021/12/29 11:07:27;;;;;;;;;;;16.60;64.70;;;;;;6188926;23;19912;-93
2021/12/29 11:09:52;;;;;;;;;;;16.50;64.60;;;;;;6189727;23;19908;-93
2021/12/29 11:12:18;;;;;;;;;;;16.50;64.60;;;;;;6162062;23;19970;-91
2021/12/29 11:14:44;;;;;;;;;;;16.50;64.50;;;;;;6186177;23;19971;-93
2021/12/29 11:17:10;;;;;;;;;;;16.40;64.50;;;;;;6185409;23;20390;-91
2021/12/29 11:19:37;;;;;;;;;;;16.40;64.50;;;;;;6186376;23;19913;-92
2021/12/29 11:22:11;;;;;;;;;;;16.30;64.50;;;;;;6185496;23;19928;-91
2021/12/29 11:24:37;;;;;;;;;;;16.20;64.40;;;;;;6189522;23;19983;-92
2021/12/29 11:27:14;;;;;;;;;;;16.20;64.60;;;;;;6189692;23;19904;-92
2021/12/29 11:29:51;;;;;;;;;;;16.10;64.80;;;;;;6190426;23;20600;-92
2021/12/29 11:32:36;;;;;;;;;;;16.00;65.00;;;;;;6186532;23;19982;-93
2021/12/29 11:35:01;;;;;;;;;;;16.00;65.10;;;;;;6165178;23;19908;-93
2021/12/29 11:37:27;;;;;;;;;;;16.00;65.20;;;;;;6190995;23;20340;-92
2021/12/29 11:39:53;;;;;;;;;;;16.00;65.30;;;;;;6188230;23;19908;-94
2021/12/29 11:42:18;;;;;;;;;;;16.10;65.50;;;;;;6191095;23;19927;-93
2021/12/29 11:44:44;;;;;;;;;;;16.10;65.50;;;;;;6190578;23;19916;-92
2021/12/29 11:47:10;;;;;;;;;;;16.20;65.50;;;;;;6189607;23;20529;-93
2021/12/29 11:49:36;;;;;;;;;;;16.20;65.70;;;;;;6189398;23;19916;-91
2021/12/29 11:52:14;;;;;;;;;;;16.30;65.60;;;;;;6185399;23;19908;-90
2021/12/29 11:54:58;;;;;;;;;;;16.30;65.70;;;;;;6162740;23;19916;-93
2021/12/29 11:57:25;;;;;;;;;;;16.30;65.70;;;;;;6161257;23;20352;-92
2021/12/29 11:59:51;;;;;;;;;;;16.40;65.80;;;;;;6163540;23;19951;-92
2021/12/29 12:02:24;;;;;;;;;;;16.40;65.80;;;;;;6190249;23;20597;-93
2021/12/29 12:05:04;;;;;;;;;;;16.50;65.70;;;;;;6187478;23;19913;-93
2021/12/29 12:07:29;;;;;;;;;;;16.50;65.50;;;;;;6188733;23;19912;-92
2021/12/29 12:09:59;;;;;;;;;;;16.50;65.60;;;;;;6191532;23;20319;-93
2021/12/29 12:12:32;;;;;;;;;;;16.60;65.50;;;;;;6187734;23;20109;-91
2021/12/29 12:14:58;;;;;;;;;;;16.60;65.60;;;;;;6165917;23;19909;-93
2021/12/29 12:17:25;;;;;;;;;;;16.60;65.50;;;;;;6190602;23;19912;-92
2021/12/29 12:20:05;;;;;;;;;;;16.70;65.50;;;;;;6189852;23;20027;-94
2021/12/29 12:22:40;;;;;;;;;;;16.70;65.40;;;;;;6192583;23;20321;-94
2021/12/29 12:25:06;;;;;;;;;;;16.70;65.30;;;;;;6169169;23;19908;-94
2021/12/29 12:27:34;;;;;;;;;;;16.60;65.10;;;;;;6191743;23;19912;-94
2021/12/29 12:30:03;;;;;;;;;;;16.60;64.90;;;;;;6191826;23;20328;-94
2021/12/29 12:32:39;;;;;;;;;;;16.50;64.90;;;;;;6191449;23;19955;-95
2021/12/29 12:35:05;;;;;;;;;;;16.50;64.90;;;;;;6190946;23;20036;-93
2021/12/29 12:37:37;;;;;;;;;;;16.50;64.80;;;;;;6188137;23;19908;-93
2021/12/29 12:40:20;;;;;;;;;;;16.40;64.80;;;;;;6185091;23;19959;-92
2021/12/29 12:42:56;;;;;;;;;;;16.30;64.80;;;;;;6190533;23;19943;-94
2021/12/29 12:45:23;;;;;;;;;;;16.30;65.00;;;;;;6188019;23;19908;-92
2021/12/29 12:47:48;;;;;;;;;;;16.20;65.20;;;;;;6187105;23;19915;-92
2021/12/29 12:50:32;;;;;;;;;;;16.30;65.20;;;;;;6188112;23;20499;-92
2021/12/29 12:52:58;;;;;;;;;;;16.30;65.30;;;;;;6194018;23;19913;-91
2021/12/29 12:55:24;;;;;;;;;;;16.20;65.20;;;;;;6191417;23;20249;-93
2021/12/29 12:57:50;;;;;;;;;;;16.30;65.10;;;;;;6190398;23;19927;-93
2021/12/29 13:00:16;;;;;;;;;;;16.20;65.10;;;;;;6185911;23;19944;-92
2021/12/29 13:02:45;;;;;;;;;;;16.20;65.10;;;;;;6161546;23;19927;-93
2021/12/29 13:05:21;;;;;;;;;;;16.20;65.10;;;;;;6189089;23;19915;-94
2021/12/29 13:07:58;;;;;;;;;;;16.10;65.00;;;;;;6190844;23;20700;-93
2021/12/29 13:10:25;;;;;;;;;;;16.10;64.90;;;;;;6187726;23;19938;-94
2021/12/29 13:12:57;;;;;;;;;;;16.00;64.80;;;;;;6190842;23;20344;-94
2021/12/29 13:15:24;;;;;;;;;;;16.00;64.80;;;;;;6162894;23;20296;-91
2021/12/29 13:17:49;;;;;;;;;;;15.90;64.90;;;;;;6195895;23;19916;-93
2021/12/29 13:20:15;;;;;;;;;;;15.90;64.90;;;;;;6188543;23;19948;-92
2021/12/29 13:22:41;;;;;;;;;;;15.90;65.10;;;;;;6186600;23;19940;-93
2021/12/29 13:25:12;;;;;;;;;;;15.90;65.10;;;;;;6188567;23;19908;-94
2021/12/29 13:27:38;;;;;;;;;;;15.90;65.10;;;;;;6185939;23;19943;-93
2021/12/29 13:30:09;;;;;;;;;;;15.90;65.10;;;;;;6188141;23;20384;-94
2021/12/29 13:32:45;;;;;;;;;;;15.90;65.00;;;;;;6190441;23;19935;-94
2021/12/29 13:35:11;;;;;;;;;;;16.00;65.10;;;;;;6192803;23;19912;-93
2021/12/29 13:37:37;;;;;;;;;;;16.00;64.90;;;;;;6189535;23;19901;-93
2021/12/29 13:40:05;;;;;;;;;;;15.90;64.80;;;;;;6192233;23;19943;-93
2021/12/29 13:42:38;;;;;;;;;;;15.90;64.90;;;;;;6168691;23;20349;-92
2021/12/29 13:45:04;;;;;;;;;;;16.00;64.90;;;;;;6164084;23;20253;-92
2021/12/29 13:47:29;;;;;;;;;;;16.00;64.70;;;;;;6162672;23;19923;-92
2021/12/29 13:49:56;;;;;;;;;;;16.00;64.80;;;;;;6188056;23;20233;-92
2021/12/29 13:52:21;;;;;;;;;;;16.00;64.90;;;;;;6190990;23;19912;-92
2021/12/29 13:54:47;;;;;;;;;;;16.00;64.70;;;;;;6190154;23;19923;-91
2021/12/29 13:57:14;;;;;;;;;;;16.00;64.50;;;;;;6192217;23;19916;-91
2021/12/29 13:59:39;;;;;;;;;;;16.00;64.50;;;;;;6164894;23;20003;-91
2021/12/29 14:02:06;;;;;;;;;;;16.00;64.50;;;;;;6189748;23;19924;-92
2021/12/29 14:04:40;;;;;;;;;;;15.90;64.40;;;;;;6196155;23;19905;-91
2021/12/29 14:07:09;;;;;;;;;;;15.90;64.50;;;;;;6190372;23;19923;-92
2021/12/29 14:09:36;;;;;;;;;;;15.90;64.50;;;;;;6187237;23;19908;-92
2021/12/29 14:12:05;;;;;;;;;;;15.80;64.40;;;;;;6191185;23;19919;-93
2021/12/29 14:14:31;;;;;;;;;;;15.80;64.50;;;;;;6163397;23;19912;-92
2021/12/29 14:16:59;;;;;;;;;;;15.80;64.40;;;;;;6189981;23;19904;-92
2021/12/29 14:19:29;;;;;;;;;;;15.80;64.40;;;;;;6162811;23;19943;-93